Rumes, Belgium
Current Conditions -  °F | °C
As of 5:00 AM on Friday 21 Nov 2014 (Local Time) from LFQQ Reporting Station
Haze Haze  
Wind Chill: 36°   Ceiling: 400
Heat Index: 41°   Visibility: 1.8mi
Dew Point: 39°   Wind: 8mph
Humidity: 93%   Direction: 80°E
Pressure: 30.15"   Gusts: NA
Location:  50.55°N, 3.31°E
Report Text: LFQQ 210400Z 08007KT 3000 BR BKN004 05/04 Q1021 NOSIG
Loading
Personal Weather Stations






























Interactive Weather Map New forecast layout! Learn more

10-Day Weather Forecast

Advertisements
Track Severe Weather on mobile